createdAt,value
2022-10-30T00:00:42.773Z,52657.27
2022-10-30T00:01:46.153Z,52676.30
2022-10-30T00:02:49.757Z,52688.33
2022-10-30T00:03:52.724Z,52688.33
2022-10-30T00:04:55.913Z,52701.36
2022-10-30T00:05:59.095Z,52691.34
2022-10-30T00:07:02.276Z,52698.35
2022-10-30T00:08:05.379Z,52657.27
2022-10-30T00:09:08.639Z,52645.25
2022-10-30T00:10:11.718Z,52617.19
2022-10-30T00:11:14.707Z,52703.36
2022-10-30T00:12:18.077Z,52688.33
2022-10-30T00:13:21.697Z,52656.27
2022-10-30T00:14:24.750Z,52603.16
2022-10-30T00:15:28.030Z,52655.27
2022-10-30T00:16:31.312Z,52665.29
2022-10-30T00:17:34.732Z,52592.14
2022-10-30T00:18:38.002Z,52640.24
2022-10-30T00:19:40.875Z,52681.32
2022-10-30T00:20:43.948Z,52655.27
2022-10-30T00:21:47.027Z,52612.18
2022-10-30T00:22:50.093Z,52583.12
2022-10-30T00:23:53.383Z,52652.26
2022-10-30T00:24:56.461Z,52665.29
2022-10-30T00:25:59.904Z,52601.16
2022-10-30T00:27:02.799Z,52653.26
2022-10-30T00:28:05.900Z,52609.18
2022-10-30T00:29:10.319Z,52641.24
2022-10-30T00:30:13.753Z,52572.11
2022-10-30T00:31:16.987Z,52613.18
2022-10-30T00:32:21.110Z,52679.31
2022-10-30T00:33:24.511Z,52643.24
2022-10-30T00:34:27.456Z,52612.18
2022-10-30T00:35:30.757Z,52654.27
2022-10-30T00:36:34.429Z,52662.28
2022-10-30T00:37:37.727Z,52668.29
2022-10-30T00:38:40.701Z,52637.23
2022-10-30T00:39:44.186Z,52659.27
2022-10-30T00:40:47.465Z,52692.34
2022-10-30T00:41:50.549Z,52730.41
2022-10-30T00:42:54.057Z,52737.43
2022-10-30T00:43:57.320Z,52770.49
2022-10-30T00:45:00.393Z,52770.49
2022-10-30T00:46:03.476Z,52727.41
2022-10-30T00:47:06.663Z,52728.41
2022-10-30T00:48:09.944Z,52684.32
2022-10-30T00:49:13.032Z,52692.34
2022-10-30T00:50:16.215Z,52713.38
2022-10-30T00:51:19.604Z,52654.27
2022-10-30T00:52:23.185Z,52603.16
2022-10-30T00:53:26.897Z,52596.15
2022-10-30T00:54:30.264Z,52597.15
2022-10-30T00:55:33.344Z,52591.14
2022-10-30T00:56:36.736Z,52607.17
2022-10-30T00:57:40.120Z,52540.04
2022-10-30T00:58:43.554Z,52594.15
2022-10-30T00:59:46.690Z,52642.24
2022-10-30T01:00:50.072Z,52692.34
2022-10-30T01:01:53.396Z,52676.30
2022-10-30T01:02:56.795Z,52705.36
2022-10-30T01:03:59.923Z,52713.38
2022-10-30T01:05:03.096Z,52662.28
2022-10-30T01:06:06.187Z,52589.14
2022-10-30T01:07:09.475Z,52617.19
2022-10-30T01:08:13.022Z,52675.30
2022-10-30T01:09:16.471Z,52686.33
2022-10-30T01:10:20.144Z,52635.23
2022-10-30T01:11:23.596Z,52679.31
2022-10-30T01:12:27.020Z,52678.31
2022-10-30T01:13:30.099Z,52731.41
2022-10-30T01:14:33.175Z,52719.39
2022-10-30T01:15:36.169Z,52708.37
2022-10-30T01:16:39.533Z,52736.43
2022-10-30T01:17:42.509Z,52697.35
2022-10-30T01:18:45.701Z,52730.41
2022-10-30T01:19:48.969Z,52682.32
2022-10-30T01:20:51.755Z,52680.32
2022-10-30T01:21:54.931Z,52702.36
2022-10-30T01:22:58.371Z,52707.37
2022-10-30T01:24:01.413Z,52683.32
2022-10-30T01:25:04.329Z,52707.37
2022-10-30T01:26:07.453Z,52680.32
2022-10-30T01:27:10.663Z,52673.30
2022-10-30T01:28:13.926Z,52674.30
2022-10-30T01:29:16.800Z,52696.35
2022-10-30T01:30:20.302Z,52695.34
2022-10-30T01:31:23.266Z,52700.36
2022-10-30T01:32:26.248Z,52689.33
2022-10-30T01:33:29.534Z,52723.40
2022-10-30T01:34:32.600Z,52669.29
2022-10-30T01:35:36.405Z,52726.41
2022-10-30T01:36:39.617Z,52731.41
2022-10-30T01:37:42.124Z,52693.34
2022-10-30T01:38:44.657Z,52653.26
2022-10-30T01:39:47.539Z,52716.39
2022-10-30T01:40:50.209Z,52689.33
2022-10-30T01:41:55.445Z,52717.39
2022-10-30T01:42:59.092Z,52648.25
2022-10-30T01:44:02.064Z,52682.32
2022-10-30T01:45:05.347Z,52732.42
2022-10-30T01:46:08.542Z,52705.36
2022-10-30T01:47:11.821Z,52648.25
2022-10-30T01:48:15.415Z,52664.29
2022-10-30T01:49:19.076Z,52622.20
2022-10-30T01:50:22.178Z,52669.29
2022-10-30T01:51:25.559Z,52717.39
2022-10-30T01:52:28.751Z,52662.28
2022-10-30T01:53:32.034Z,52615.19
2022-10-30T01:54:35.203Z,52630.21
2022-10-30T01:55:38.699Z,52694.34
2022-10-30T01:56:42.153Z,52700.36
2022-10-30T01:57:45.590Z,52729.41
2022-10-30T01:58:48.698Z,52733.42
2022-10-30T01:59:51.832Z,52697.35
2022-10-30T02:00:55.122Z,52719.39
2022-10-30T02:01:59.060Z,52748.45
2022-10-30T02:03:02.442Z,52722.40
2022-10-30T02:04:05.851Z,52665.29
2022-10-30T02:05:08.777Z,52690.33
2022-10-30T02:06:11.944Z,52704.36
2022-10-30T02:07:15.137Z,52710.37
2022-10-30T02:08:18.124Z,52714.38
2022-10-30T02:09:21.185Z,52706.36
2022-10-30T02:10:24.468Z,52706.36
2022-10-30T02:11:28.169Z,52693.34
2022-10-30T02:12:31.661Z,52695.34
2022-10-30T02:13:34.648Z,52685.32
2022-10-30T02:14:37.507Z,52658.27
2022-10-30T02:15:40.381Z,52661.28
2022-10-30T02:16:43.566Z,52697.35
2022-10-30T02:17:46.641Z,52635.23
2022-10-30T02:18:50.045Z,52660.27
2022-10-30T02:19:53.416Z,52705.36
2022-10-30T02:20:56.188Z,52699.35
2022-10-30T02:21:59.148Z,52711.37
2022-10-30T02:23:03.301Z,52676.30
2022-10-30T02:24:06.608Z,52678.31
2022-10-30T02:25:09.895Z,52702.36
2022-10-30T02:26:13.219Z,52695.34
2022-10-30T02:27:16.717Z,52670.30
2022-10-30T02:28:19.781Z,52675.30
2022-10-30T02:29:22.564Z,52692.34
2022-10-30T02:30:25.753Z,52705.36
2022-10-30T02:31:28.514Z,52717.39
2022-10-30T02:32:31.594Z,52670.30
2022-10-30T02:33:35.024Z,52648.25
2022-10-30T02:34:37.971Z,52651.26
2022-10-30T02:35:40.939Z,52741.43
2022-10-30T02:36:44.121Z,52700.36
2022-10-30T02:37:46.999Z,52700.36
2022-10-30T02:38:50.172Z,52717.39
2022-10-30T02:39:53.463Z,52747.45
2022-10-30T02:40:56.226Z,52757.46
2022-10-30T02:41:59.315Z,52745.44
2022-10-30T02:43:02.602Z,52771.50
2022-10-30T02:44:05.782Z,52767.49
2022-10-30T02:45:08.655Z,52711.37
2022-10-30T02:46:11.526Z,52698.35
2022-10-30T02:47:14.712Z,52741.43
2022-10-30T02:48:17.694Z,52718.39
2022-10-30T02:49:20.982Z,52745.44
2022-10-30T02:50:24.255Z,52704.36
2022-10-30T02:51:27.335Z,52728.41
2022-10-30T02:52:30.212Z,52754.46
2022-10-30T02:53:33.295Z,52707.37
2022-10-30T02:54:36.577Z,52722.40
2022-10-30T02:55:39.451Z,52708.37
2022-10-30T02:56:42.734Z,52715.38
2022-10-30T02:57:46.122Z,52699.35
2022-10-30T02:58:49.206Z,52740.43
2022-10-30T02:59:52.273Z,52704.36
2022-10-30T03:00:55.519Z,52709.37
2022-10-30T03:01:58.778Z,52724.40
2022-10-30T03:03:02.644Z,52739.43
2022-10-30T03:04:05.928Z,52768.49
2022-10-30T03:05:08.933Z,52682.32
2022-10-30T03:06:11.865Z,52746.45
2022-10-30T03:07:14.655Z,52742.44
2022-10-30T03:08:17.736Z,52804.56
2022-10-30T03:09:21.116Z,52767.49
2022-10-30T03:10:24.506Z,52783.52
2022-10-30T03:11:27.378Z,52777.50
2022-10-30T03:12:30.664Z,52721.39
2022-10-30T03:13:33.645Z,52740.43
2022-10-30T03:14:36.515Z,52747.45
2022-10-30T03:15:40.004Z,52743.44
2022-10-30T03:16:43.094Z,52730.41
2022-10-30T03:17:46.106Z,52747.45
2022-10-30T03:18:49.351Z,52721.39
2022-10-30T03:19:52.423Z,52717.39
2022-10-30T03:20:55.706Z,52745.44
2022-10-30T03:21:59.091Z,52760.47
2022-10-30T03:23:02.182Z,52733.42
2022-10-30T03:24:05.460Z,52714.38
2022-10-30T03:25:08.428Z,52759.47
2022-10-30T03:26:11.747Z,52748.45
2022-10-30T03:27:14.698Z,52743.44
2022-10-30T03:28:17.978Z,52787.53
2022-10-30T03:29:20.964Z,52767.49
2022-10-30T03:30:23.723Z,52774.50
2022-10-30T03:31:27.025Z,52770.49
2022-10-30T03:32:30.228Z,52753.46
2022-10-30T03:33:34.119Z,52757.46
2022-10-30T03:34:36.965Z,52757.46
2022-10-30T03:35:39.736Z,52718.39
2022-10-30T03:36:43.237Z,52737.43
2022-10-30T03:37:46.623Z,52709.37
2022-10-30T03:38:50.006Z,52749.45
2022-10-30T03:39:53.088Z,52787.53
2022-10-30T03:40:56.674Z,52743.44
2022-10-30T03:42:00.499Z,52730.41
2022-10-30T03:43:03.552Z,52779.51
2022-10-30T03:44:06.632Z,52763.48
2022-10-30T03:45:09.504Z,52749.45
2022-10-30T03:46:12.490Z,52787.53
2022-10-30T03:47:15.557Z,52757.46
2022-10-30T03:48:18.450Z,52718.39
2022-10-30T03:49:21.419Z,52738.43
2022-10-30T03:50:24.590Z,52785.52
2022-10-30T03:51:27.676Z,52753.46
2022-10-30T03:52:30.755Z,52786.52
2022-10-30T03:53:33.927Z,52771.50
2022-10-30T03:54:36.805Z,52782.52
2022-10-30T03:55:39.892Z,52747.45
2022-10-30T03:56:43.069Z,52795.54
2022-10-30T03:57:46.159Z,52776.50
2022-10-30T03:58:49.331Z,52789.53
2022-10-30T03:59:52.313Z,52757.46
2022-10-30T04:00:55.360Z,52741.43
2022-10-30T04:01:58.502Z,52761.47
2022-10-30T04:03:02.265Z,52793.54
2022-10-30T04:04:05.654Z,52776.50
2022-10-30T04:05:08.519Z,52775.50
2022-10-30T04:06:11.711Z,52777.50
2022-10-30T04:07:15.210Z,52767.49
2022-10-30T04:08:18.583Z,52801.55
2022-10-30T04:09:21.670Z,52786.52
2022-10-30T04:10:24.549Z,52780.51
2022-10-30T04:11:27.719Z,52738.43
2022-10-30T04:12:30.902Z,52766.48
2022-10-30T04:13:33.983Z,52807.57
2022-10-30T04:14:37.278Z,52781.52
2022-10-30T04:15:40.237Z,52811.57
2022-10-30T04:16:43.420Z,52842.64
2022-10-30T04:17:46.502Z,52808.57
2022-10-30T04:18:49.582Z,52782.52
2022-10-30T04:19:53.176Z,52793.54
2022-10-30T04:20:56.456Z,52798.55
2022-10-30T04:21:59.950Z,52834.62
2022-10-30T04:23:03.029Z,52819.59
2022-10-30T04:24:06.308Z,52809.57
2022-10-30T04:25:09.081Z,52769.49
2022-10-30T04:26:12.467Z,52763.48
2022-10-30T04:27:15.753Z,52775.50
2022-10-30T04:28:18.836Z,52819.59
2022-10-30T04:29:22.930Z,52790.53
2022-10-30T04:30:26.429Z,52811.57
2022-10-30T04:31:29.400Z,52841.63
2022-10-30T04:32:32.690Z,52807.57
2022-10-30T04:33:35.673Z,52845.64
2022-10-30T04:34:39.053Z,52823.60
2022-10-30T04:35:42.335Z,52791.54
2022-10-30T04:36:45.206Z,52807.57
2022-10-30T04:37:48.084Z,52838.62
2022-10-30T04:38:51.375Z,52823.60
2022-10-30T04:39:54.650Z,52795.54
2022-10-30T04:40:57.831Z,52869.69
2022-10-30T04:42:01.239Z,52832.62
2022-10-30T04:43:04.302Z,52851.65
2022-10-30T04:44:07.178Z,52847.64
2022-10-30T04:45:15.031Z,52851.65
2022-10-30T04:46:15.178Z,52859.67
2022-10-30T04:47:18.439Z,52861.67
2022-10-30T04:48:21.229Z,52840.63
2022-10-30T04:49:24.208Z,52805.56
2022-10-30T04:50:27.290Z,52845.64
2022-10-30T04:51:30.875Z,52869.69
2022-10-30T04:52:34.163Z,52849.65
2022-10-30T04:53:37.652Z,52876.70
2022-10-30T04:54:41.354Z,52846.64
2022-10-30T04:55:45.155Z,52821.59
2022-10-30T04:56:48.226Z,52835.62
2022-10-30T04:57:51.109Z,52842.64
2022-10-30T04:58:54.489Z,52850.65
2022-10-30T04:59:57.669Z,52849.65
2022-10-30T05:01:03.126Z,52881.71
2022-10-30T05:02:05.630Z,52829.61
2022-10-30T05:03:09.164Z,52837.62
2022-10-30T05:04:12.343Z,52837.62
2022-10-30T05:05:15.735Z,52853.66
2022-10-30T05:06:19.125Z,52839.63
2022-10-30T05:07:22.394Z,52889.73
2022-10-30T05:08:25.326Z,52875.70
2022-10-30T05:09:28.260Z,52894.74
2022-10-30T05:10:31.533Z,52875.70
2022-10-30T05:11:35.232Z,52887.73
2022-10-30T05:12:38.107Z,52880.71
2022-10-30T05:13:41.379Z,52844.64
2022-10-30T05:14:44.573Z,52884.72
2022-10-30T05:15:47.449Z,52835.62
2022-10-30T05:16:50.623Z,52877.71
2022-10-30T05:17:55.212Z,52868.69
2022-10-30T05:18:58.635Z,52865.68
2022-10-30T05:20:01.716Z,52911.77
2022-10-30T05:21:04.579Z,52876.70
2022-10-30T05:22:08.029Z,52885.72
2022-10-30T05:23:11.150Z,52920.79
2022-10-30T05:24:13.917Z,52916.79
2022-10-30T05:25:17.217Z,52904.76
2022-10-30T05:26:20.492Z,52927.80
2022-10-30T05:27:23.562Z,52899.75
2022-10-30T05:28:27.470Z,52909.77
2022-10-30T05:29:30.656Z,52895.74
2022-10-30T05:30:33.421Z,52922.80
2022-10-30T05:31:36.498Z,52925.80
2022-10-30T05:32:39.691Z,52911.77
2022-10-30T05:33:43.784Z,52895.74
2022-10-30T05:34:47.080Z,52914.78
2022-10-30T05:35:50.457Z,52903.76
2022-10-30T05:36:54.255Z,52903.76
2022-10-30T05:37:58.455Z,52921.79
2022-10-30T05:39:02.090Z,52896.74
2022-10-30T05:40:05.460Z,52887.73
2022-10-30T05:41:09.334Z,52939.83
2022-10-30T05:42:14.040Z,52885.72
2022-10-30T05:43:17.639Z,52912.78
2022-10-30T05:44:29.223Z,52934.82
2022-10-30T05:45:25.338Z,52897.75
2022-10-30T05:46:28.326Z,52871.70
2022-10-30T05:47:31.711Z,52873.70
2022-10-30T05:48:35.405Z,52867.68
2022-10-30T05:49:38.171Z,52911.77
2022-10-30T05:50:43.582Z,52877.71
2022-10-30T05:51:46.478Z,52875.70
2022-10-30T05:52:49.871Z,52866.68
2022-10-30T05:53:53.232Z,52877.71
2022-10-30T05:54:56.341Z,52887.73
2022-10-30T05:56:02.696Z,52907.77
2022-10-30T05:57:05.567Z,52905.76
2022-10-30T05:58:08.956Z,52905.76
2022-10-30T05:59:12.583Z,52935.82
2022-10-30T06:00:15.618Z,52906.77
2022-10-30T06:01:18.940Z,52877.71
2022-10-30T06:02:22.954Z,52911.77
2022-10-30T06:03:26.814Z,52873.70
2022-10-30T06:04:29.681Z,52889.73
2022-10-30T06:05:32.756Z,52913.78
2022-10-30T06:06:35.956Z,52929.81
2022-10-30T06:07:39.538Z,52983.92
2022-10-30T06:08:42.788Z,52979.91
2022-10-30T06:09:47.655Z,52990.93
2022-10-30T06:10:50.623Z,53007.97
2022-10-30T06:11:53.799Z,53016.99
2022-10-30T06:12:57.321Z,53008.97
2022-10-30T06:14:00.567Z,52999.95
2022-10-30T06:15:03.965Z,52998.95
2022-10-30T06:16:07.255Z,53014.98
2022-10-30T06:17:10.731Z,52967.89
2022-10-30T06:18:13.630Z,53022.00
2022-10-30T06:19:18.531Z,53005.96
2022-10-30T06:20:21.913Z,53014.98
2022-10-30T06:21:32.112Z,52995.95
2022-10-30T06:22:40.547Z,52996.95
2022-10-30T06:23:44.055Z,53004.96
2022-10-30T06:24:47.339Z,52989.93
2022-10-30T06:25:50.318Z,53011.98
2022-10-30T06:26:58.431Z,53003.96
2022-10-30T06:28:02.027Z,53000.95
2022-10-30T06:29:06.274Z,52999.95
2022-10-30T06:30:09.291Z,53014.98
2022-10-30T06:31:12.529Z,53045.04
2022-10-30T06:32:15.580Z,53025.00
2022-10-30T06:33:19.785Z,53023.00
2022-10-30T06:34:30.650Z,53067.09
2022-10-30T06:35:33.554Z,53098.15
2022-10-30T06:36:36.993Z,53120.20
2022-10-30T06:37:40.365Z,53135.23
2022-10-30T06:38:44.304Z,53177.32
2022-10-30T06:39:48.863Z,53166.29
2022-10-30T06:40:52.394Z,53127.21
2022-10-30T06:42:02.062Z,53115.19
2022-10-30T06:43:10.103Z,53157.28
2022-10-30T06:44:19.106Z,53156.27
2022-10-30T06:45:22.603Z,53155.27
2022-10-30T06:46:30.520Z,53154.27
2022-10-30T06:47:31.712Z,53168.30
2022-10-30T06:48:40.269Z,53157.28
2022-10-30T06:49:50.167Z,53141.24
2022-10-30T06:50:53.462Z,53168.30
2022-10-30T06:51:57.470Z,53140.24
2022-10-30T06:53:00.773Z,53121.20
2022-10-30T06:54:03.776Z,53080.12
2022-10-30T06:55:07.528Z,53100.16
2022-10-30T06:56:10.563Z,53103.16
2022-10-30T06:57:14.101Z,53151.26
2022-10-30T06:58:17.383Z,53180.32
2022-10-30T06:59:20.565Z,53202.37
2022-10-30T07:00:23.976Z,53204.37
2022-10-30T07:01:27.227Z,53263.50
2022-10-30T07:02:30.702Z,53291.56
2022-10-30T07:03:34.527Z,53364.71
2022-10-30T07:04:37.848Z,53440.88
2022-10-30T07:05:41.499Z,53476.95
2022-10-30T07:06:44.674Z,53518.04
2022-10-30T07:07:53.628Z,53539.09
2022-10-30T07:08:56.470Z,53606.23
2022-10-30T07:09:59.659Z,53627.28
2022-10-30T07:11:02.722Z,53695.43
2022-10-30T07:12:07.232Z,53764.58
2022-10-30T07:13:10.763Z,53875.83
2022-10-30T07:14:14.354Z,53921.94
2022-10-30T07:15:19.652Z,53952.00
2022-10-30T07:16:24.174Z,53958.02
2022-10-30T07:17:27.341Z,54009.14
2022-10-30T07:18:30.217Z,53961.02
2022-10-30T07:19:33.917Z,54017.15
2022-10-30T07:20:37.547Z,53987.09
2022-10-30T07:21:40.373Z,53966.04
2022-10-30T07:22:43.663Z,53973.05
2022-10-30T07:23:50.188Z,53933.96
2022-10-30T07:24:53.511Z,53902.89
2022-10-30T07:26:03.359Z,53923.94
2022-10-30T07:27:01.923Z,53882.85
2022-10-30T07:28:06.079Z,53962.03
2022-10-30T07:29:09.310Z,53976.06
2022-10-30T07:30:12.873Z,53976.06
2022-10-30T07:31:24.093Z,54003.12
2022-10-30T07:32:22.043Z,54021.16
2022-10-30T07:33:25.423Z,54020.16
2022-10-30T07:34:28.605Z,54042.21
2022-10-30T07:35:31.591Z,54075.29
2022-10-30T07:36:34.463Z,54083.30
2022-10-30T07:37:37.326Z,54166.50
2022-10-30T07:38:40.505Z,54251.70
2022-10-30T07:39:43.581Z,54351.93
2022-10-30T07:40:46.570Z,54529.36
2022-10-30T07:41:50.338Z,54800.02
2022-10-30T07:42:53.740Z,54996.52
2022-10-30T07:43:56.515Z,55095.77
2022-10-30T07:44:59.643Z,55319.35
2022-10-30T07:46:03.085Z,55390.54
2022-10-30T07:47:05.963Z,55472.76
2022-10-30T07:48:09.572Z,55514.87
2022-10-30T07:49:12.429Z,55595.08
2022-10-30T07:50:15.926Z,55742.48
2022-10-30T07:51:25.803Z,55742.48
2022-10-30T07:52:29.349Z,55771.56
2022-10-30T07:53:32.425Z,55812.68
2022-10-30T07:54:35.606Z,55806.66
2022-10-30T07:55:39.092Z,55842.76
2022-10-30T07:56:42.284Z,55878.86
2022-10-30T07:57:53.553Z,55881.87
2022-10-30T07:58:56.633Z,55951.06
2022-10-30T08:00:02.900Z,55965.10
2022-10-30T08:01:04.486Z,56036.30
2022-10-30T08:02:07.634Z,56107.50
2022-10-30T08:03:16.756Z,56162.65
2022-10-30T08:04:20.733Z,56306.06
2022-10-30T08:05:28.848Z,56429.41
2022-10-30T08:06:29.601Z,56564.81
2022-10-30T08:07:32.776Z,56704.22
2022-10-30T08:08:40.374Z,56842.64
2022-10-30T08:09:41.243Z,56966.01
2022-10-30T08:10:44.528Z,57162.61
2022-10-30T08:11:47.624Z,57273.95
2022-10-30T08:12:50.998Z,57455.52
2022-10-30T08:13:53.970Z,57580.92
2022-10-30T08:14:57.159Z,57772.54
2022-10-30T08:16:06.695Z,57879.89
2022-10-30T08:17:09.959Z,58048.44
2022-10-30T08:18:18.095Z,58252.12
2022-10-30T08:19:20.732Z,58371.52
2022-10-30T08:20:24.010Z,58597.29
2022-10-30T08:21:27.736Z,58719.71
2022-10-30T08:22:30.799Z,59006.72
2022-10-30T08:23:34.282Z,59167.30
2022-10-30T08:24:37.661Z,59230.52
2022-10-30T08:25:44.641Z,59359.99
2022-10-30T08:26:54.074Z,59382.07
2022-10-30T08:28:09.419Z,59506.53
2022-10-30T08:29:13.233Z,59596.86
2022-10-30T08:30:19.704Z,59672.14
2022-10-30T08:31:23.794Z,59670.13
2022-10-30T08:32:27.657Z,59731.36
2022-10-30T08:33:38.550Z,59782.55
2022-10-30T08:34:53.817Z,59796.60
2022-10-30T08:36:02.365Z,59878.91
2022-10-30T08:37:05.111Z,59935.12
2022-10-30T08:38:08.298Z,59911.03
2022-10-30T08:40:32.688Z,59975.27
2022-10-30T08:41:36.699Z,59998.36
2022-10-30T08:42:40.569Z,59963.23
2022-10-30T08:43:44.996Z,59922.07
2022-10-30T08:44:48.883Z,59887.95
2022-10-30T08:45:52.615Z,59847.79
2022-10-30T08:47:11.393Z,59842.77
2022-10-30T08:48:14.191Z,59914.04
2022-10-30T08:49:17.375Z,59939.14
2022-10-30T08:50:29.075Z,59915.05
2022-10-30T08:51:32.441Z,59928.10
2022-10-30T08:52:44.426Z,59971.26
2022-10-30T08:53:48.232Z,59932.11
2022-10-30T08:54:51.931Z,59992.34
2022-10-30T08:56:02.481Z,59960.22
2022-10-30T08:57:14.989Z,59960.22
2022-10-30T08:58:18.163Z,60007.40
2022-10-30T09:00:43.052Z,59978.29
2022-10-30T09:01:46.490Z,60054.57
2022-10-30T09:02:49.619Z,60000.37
2022-10-30T09:03:52.596Z,59986.32
2022-10-30T09:05:01.678Z,60000.37
2022-10-30T09:06:04.934Z,59980.29
2022-10-30T09:07:13.060Z,60010.41
2022-10-30T09:08:15.889Z,59994.35
2022-10-30T09:09:18.895Z,60001.37
2022-10-30T09:10:24.426Z,59980.29
2022-10-30T09:11:28.282Z,59972.27
2022-10-30T09:12:34.163Z,59975.27
2022-10-30T09:13:37.334Z,59972.27
2022-10-30T09:14:48.578Z,60032.49
2022-10-30T09:15:54.020Z,59998.36
2022-10-30T09:16:57.200Z,60016.43
2022-10-30T09:18:03.791Z,60018.44
2022-10-30T09:19:07.050Z,60022.45
2022-10-30T09:20:10.796Z,60028.48
2022-10-30T09:21:16.792Z,60008.40
2022-10-30T09:22:20.073Z,60009.41
2022-10-30T09:23:23.357Z,60050.56
2022-10-30T09:24:26.647Z,60030.48
2022-10-30T09:25:29.929Z,60049.56
2022-10-30T09:26:33.002Z,60049.56
2022-10-30T09:27:35.875Z,60049.56
2022-10-30T09:28:39.292Z,60074.65
2022-10-30T09:29:42.558Z,60045.54
2022-10-30T09:30:45.746Z,60031.49
2022-10-30T09:31:49.442Z,60024.46
2022-10-30T09:32:55.015Z,60062.61
2022-10-30T09:34:03.258Z,60070.64
2022-10-30T09:35:06.147Z,60074.65
2022-10-30T09:36:09.014Z,60082.68
2022-10-30T09:37:19.628Z,60100.75
2022-10-30T09:38:23.382Z,60067.62
2022-10-30T09:39:26.662Z,60104.77
2022-10-30T09:40:29.939Z,60086.70
2022-10-30T09:41:32.933Z,60100.75
2022-10-30T09:42:35.896Z,60082.68
2022-10-30T09:43:38.935Z,60092.72
2022-10-30T09:44:45.825Z,60100.75
2022-10-30T09:45:47.817Z,60091.72
2022-10-30T09:46:50.772Z,60108.79
2022-10-30T09:47:53.561Z,60096.74
2022-10-30T09:48:57.225Z,60104.77
2022-10-30T09:50:00.420Z,60118.82
2022-10-30T09:51:04.112Z,60112.80
2022-10-30T09:52:07.187Z,60110.79
2022-10-30T09:53:10.785Z,60102.76
2022-10-30T09:54:13.764Z,60146.93
2022-10-30T09:55:16.733Z,60147.93
2022-10-30T09:56:20.344Z,60146.93
2022-10-30T09:57:23.509Z,60158.98
2022-10-30T09:58:26.896Z,60146.93
2022-10-30T09:59:30.964Z,60169.02
2022-10-30T10:00:34.794Z,60144.92
2022-10-30T10:01:37.880Z,60189.09
2022-10-30T10:02:41.061Z,60201.14
2022-10-30T10:03:44.468Z,60152.95
2022-10-30T10:04:47.440Z,60162.99
2022-10-30T10:05:52.140Z,60159.98
2022-10-30T10:07:06.485Z,60161.99
2022-10-30T10:08:09.559Z,60148.94
2022-10-30T10:09:12.644Z,60270.40
2022-10-30T10:10:15.674Z,60235.27
2022-10-30T10:11:19.216Z,60195.11
2022-10-30T10:12:22.291Z,60187.08
2022-10-30T10:13:25.364Z,60212.18
2022-10-30T10:14:28.759Z,60206.16
2022-10-30T10:15:32.452Z,60197.12
2022-10-30T10:16:36.371Z,60193.11
2022-10-30T10:17:39.869Z,60222.22
2022-10-30T10:18:42.914Z,60238.28
2022-10-30T10:19:45.992Z,60235.27
2022-10-30T10:20:50.935Z,60238.28
2022-10-30T10:21:54.297Z,60228.24
2022-10-30T10:22:57.809Z,60205.15
2022-10-30T10:24:01.505Z,60227.24
2022-10-30T10:25:04.665Z,60224.23
2022-10-30T10:26:08.050Z,60207.16
2022-10-30T10:27:11.749Z,60233.26
2022-10-30T10:28:15.549Z,60249.32
2022-10-30T10:29:19.342Z,60253.34
2022-10-30T10:30:23.247Z,60267.39
2022-10-30T10:31:26.327Z,60233.26
2022-10-30T10:32:29.405Z,60217.20
2022-10-30T10:33:32.790Z,60215.19
2022-10-30T10:34:36.172Z,60233.26
2022-10-30T10:35:40.060Z,60220.21
2022-10-30T10:36:43.069Z,60254.34
2022-10-30T10:37:45.913Z,60263.38
2022-10-30T10:38:49.615Z,60250.33
2022-10-30T10:39:52.696Z,60249.32
2022-10-30T10:40:56.191Z,60230.25
2022-10-30T10:41:59.466Z,60244.30
2022-10-30T10:43:02.950Z,60255.34
2022-10-30T10:44:06.360Z,60245.31
2022-10-30T10:45:09.723Z,60224.23
2022-10-30T10:46:13.022Z,60262.37
2022-10-30T10:47:16.205Z,60253.34
2022-10-30T10:48:19.374Z,60228.24
2022-10-30T10:49:23.290Z,60272.41
2022-10-30T10:50:26.672Z,60286.47
2022-10-30T10:51:29.739Z,60278.43
2022-10-30T10:52:33.128Z,60279.44
2022-10-30T10:53:36.205Z,60279.44
2022-10-30T10:54:39.093Z,60267.39
2022-10-30T10:55:42.263Z,60249.32
2022-10-30T10:56:45.547Z,60251.33
2022-10-30T10:57:48.839Z,60255.34
2022-10-30T10:58:52.336Z,60251.33
2022-10-30T10:59:59.285Z,60289.48
2022-10-30T11:01:02.455Z,60275.43
2022-10-30T11:02:05.739Z,60268.39
2022-10-30T11:03:09.317Z,60278.43
2022-10-30T11:04:12.221Z,60279.44
2022-10-30T11:05:15.612Z,60237.28
2022-10-30T11:06:19.116Z,60234.27
2022-10-30T11:07:34.351Z,60258.36
2022-10-30T11:08:38.070Z,60252.34
2022-10-30T11:09:41.660Z,60292.49
2022-10-30T11:10:45.671Z,60239.29
2022-10-30T11:11:48.734Z,60187.08
2022-10-30T11:12:51.811Z,60245.31
2022-10-30T11:13:54.993Z,60167.01
2022-10-30T11:14:57.872Z,60197.12
2022-10-30T11:16:01.460Z,60181.06
2022-10-30T11:17:04.955Z,60166.00
2022-10-30T11:18:11.043Z,60183.07
2022-10-30T11:19:13.979Z,60182.07
2022-10-30T11:20:17.786Z,60179.05
2022-10-30T11:21:25.672Z,60187.08
2022-10-30T11:22:28.336Z,60154.96
2022-10-30T11:23:31.434Z,60160.98
2022-10-30T11:24:34.381Z,60084.69
2022-10-30T11:25:38.086Z,60076.66
2022-10-30T11:26:44.128Z,60062.61
2022-10-30T11:27:47.209Z,60040.52
2022-10-30T11:28:50.700Z,60021.45
2022-10-30T11:29:53.800Z,60038.52
2022-10-30T11:30:57.576Z,60014.42
2022-10-30T11:32:00.969Z,60006.39
2022-10-30T11:33:03.743Z,59992.34
2022-10-30T11:34:07.232Z,59963.23
2022-10-30T11:35:10.507Z,59968.25
2022-10-30T11:36:15.722Z,59955.20
2022-10-30T11:37:18.946Z,59918.06
2022-10-30T11:38:22.312Z,59887.95
2022-10-30T11:39:25.797Z,59873.89
2022-10-30T11:40:29.186Z,59832.74
2022-10-30T11:41:32.366Z,59857.83
2022-10-30T11:42:36.766Z,59815.67
2022-10-30T11:43:40.579Z,59832.74
2022-10-30T11:44:43.865Z,59833.74
2022-10-30T11:45:47.044Z,59818.68
2022-10-30T11:46:50.018Z,59833.74
2022-10-30T11:47:54.457Z,59765.48
2022-10-30T11:48:57.937Z,59732.36
2022-10-30T11:50:00.789Z,59711.28
2022-10-30T11:51:12.505Z,57301.04
2022-10-30T11:52:15.341Z,59548.68
2022-10-30T11:53:18.313Z,59548.68
2022-10-30T11:54:21.193Z,59587.82
2022-10-30T11:55:24.273Z,59564.74
2022-10-30T11:56:27.246Z,59588.83
2022-10-30T11:57:30.227Z,59543.66
2022-10-30T11:58:33.723Z,59528.61
2022-10-30T11:59:36.901Z,59534.63
2022-10-30T12:00:40.494Z,59536.64
2022-10-30T12:01:43.684Z,59488.46
2022-10-30T12:02:57.824Z,59494.48
2022-10-30T12:04:00.783Z,59475.41
2022-10-30T12:05:03.765Z,59414.19
2022-10-30T12:06:06.843Z,59405.16
2022-10-30T12:07:10.027Z,59380.06
2022-10-30T12:08:13.214Z,59386.09
2022-10-30T12:09:16.192Z,59362.00
2022-10-30T12:10:19.174Z,59344.94
2022-10-30T12:11:22.140Z,59379.06
2022-10-30T12:12:25.625Z,59377.05
2022-10-30T12:13:28.712Z,59333.89
2022-10-30T12:14:32.093Z,59350.96
2022-10-30T12:15:35.597Z,59411.18
2022-10-30T12:16:38.872Z,59371.03
2022-10-30T12:17:42.257Z,59368.02
2022-10-30T12:18:45.334Z,59309.81
2022-10-30T12:19:48.710Z,59343.93
2022-10-30T12:20:52.717Z,59380.06
2022-10-30T12:21:55.698Z,59359.99
2022-10-30T12:22:59.352Z,59366.01
2022-10-30T12:24:02.891Z,59294.75
2022-10-30T12:25:06.072Z,59326.87
2022-10-30T12:26:09.250Z,59311.82
2022-10-30T12:27:14.795Z,59318.84
2022-10-30T12:28:17.138Z,59297.77
2022-10-30T12:29:20.522Z,59351.96
2022-10-30T12:30:23.807Z,59328.88
2022-10-30T12:31:27.103Z,59362.00